createdAt,value
2022-09-26T00:00:21.267Z,11.90
2022-09-26T00:02:50.938Z,11.88
2022-09-26T00:05:20.594Z,11.89
2022-09-26T00:07:50.206Z,11.87
2022-09-26T00:10:20.066Z,11.88
2022-09-26T00:12:49.736Z,11.86
2022-09-26T00:15:21.900Z,11.87
2022-09-26T00:17:51.792Z,11.87
2022-09-26T00:20:21.662Z,11.89
2022-09-26T00:22:51.211Z,11.89
2022-09-26T00:25:21.054Z,11.88
2022-09-26T00:27:50.589Z,11.89
2022-09-26T00:30:22.741Z,11.86
2022-09-26T00:32:52.914Z,11.88
2022-09-26T00:35:22.571Z,11.87
2022-09-26T00:37:52.104Z,11.86
2022-09-26T00:40:27.143Z,11.87
2022-09-26T00:42:57.254Z,11.86
2022-09-26T00:45:33.390Z,11.84
2022-09-26T00:48:08.221Z,11.82
2022-09-26T00:50:40.649Z,11.81
2022-09-26T00:53:14.498Z,11.79
2022-09-26T00:55:48.393Z,11.82
2022-09-26T00:58:23.269Z,11.81
2022-09-26T01:00:56.305Z,11.81
2022-09-26T01:03:27.097Z,11.81
2022-09-26T01:05:57.671Z,11.79
2022-09-26T01:08:34.887Z,11.79
2022-09-26T01:11:05.629Z,11.76
2022-09-26T01:13:37.061Z,11.78
2022-09-26T01:16:09.719Z,11.76
2022-09-26T01:18:39.701Z,11.79
2022-09-26T01:21:28.217Z,11.77
2022-09-26T01:24:29.261Z,11.81
2022-09-26T01:27:18.669Z,11.82
2022-09-26T01:30:09.030Z,11.80
2022-09-26T01:32:57.363Z,11.79
2022-09-26T01:35:54.398Z,11.79
2022-09-26T01:38:33.363Z,11.80
2022-09-26T01:41:15.359Z,11.81
2022-09-26T01:43:53.069Z,11.79
2022-09-26T01:46:34.650Z,11.77
2022-09-26T01:49:14.342Z,11.85
2022-09-26T01:51:51.958Z,11.80
2022-09-26T01:54:26.028Z,11.75
2022-09-26T01:56:59.918Z,11.79
2022-09-26T01:59:33.934Z,11.74
2022-09-26T02:02:10.423Z,11.75
2022-09-26T02:04:44.320Z,11.74
2022-09-26T02:07:18.122Z,11.76
2022-09-26T02:09:52.329Z,11.73
2022-09-26T02:12:26.553Z,11.72
2022-09-26T02:15:00.902Z,11.73
2022-09-26T02:17:38.427Z,11.72
2022-09-26T02:20:15.062Z,11.73
2022-09-26T02:22:45.571Z,11.73
2022-09-26T02:25:16.709Z,11.76
2022-09-26T02:27:46.429Z,11.77
2022-09-26T02:30:16.642Z,11.79
2022-09-26T02:32:48.981Z,11.80
2022-09-26T02:35:31.963Z,11.80
2022-09-26T02:38:01.787Z,11.83
2022-09-26T02:40:40.767Z,11.79
2022-09-26T02:43:31.789Z,11.77
2022-09-26T02:46:12.474Z,11.82
2022-09-26T02:48:57.517Z,11.95
2022-09-26T02:51:49.910Z,11.87
2022-09-26T02:54:26.516Z,11.84
2022-09-26T02:57:11.565Z,11.87
2022-09-26T02:59:52.221Z,11.87
2022-09-26T03:02:27.179Z,11.91
2022-09-26T03:05:05.672Z,11.88
2022-09-26T03:07:45.324Z,11.86
2022-09-26T03:10:17.063Z,11.86
2022-09-26T03:12:53.228Z,11.82
2022-09-26T03:15:27.507Z,11.89
2022-09-26T03:18:03.622Z,11.88
2022-09-26T03:20:37.491Z,11.88
2022-09-26T03:23:07.070Z,11.87
2022-09-26T03:25:36.922Z,11.92
2022-09-26T03:28:06.978Z,11.93
2022-09-26T03:30:36.913Z,11.93
2022-09-26T03:33:06.687Z,11.93
2022-09-26T03:35:38.828Z,11.90
2022-09-26T03:38:13.613Z,11.91
2022-09-26T03:40:44.450Z,11.96
2022-09-26T03:43:27.929Z,11.97
2022-09-26T03:46:00.588Z,11.92
2022-09-26T03:48:42.059Z,11.92
2022-09-26T03:51:16.527Z,11.92
2022-09-26T03:53:49.212Z,11.84
2022-09-26T03:56:22.606Z,11.72
2022-09-26T03:58:55.634Z,11.65
2022-09-26T04:01:39.590Z,11.60
2022-09-26T04:04:09.365Z,11.54
2022-09-26T04:06:42.246Z,11.51
2022-09-26T04:09:16.772Z,11.50
2022-09-26T04:11:49.328Z,11.43
2022-09-26T04:14:20.363Z,11.37
2022-09-26T04:16:54.508Z,11.36
2022-09-26T04:19:24.662Z,11.38
2022-09-26T04:21:57.929Z,11.31
2022-09-26T04:24:30.279Z,11.26
2022-09-26T04:27:13.296Z,11.32
2022-09-26T04:29:44.765Z,11.31
2022-09-26T04:32:17.130Z,11.31
2022-09-26T04:34:46.914Z,11.30
2022-09-26T04:37:21.179Z,11.30
2022-09-26T04:39:50.960Z,11.35
2022-09-26T04:42:20.879Z,11.36
2022-09-26T04:44:50.766Z,11.35
2022-09-26T04:47:20.726Z,11.33
2022-09-26T04:49:50.529Z,11.38
2022-09-26T04:52:22.953Z,11.38
2022-09-26T04:54:52.613Z,11.38
2022-09-26T04:57:22.178Z,11.36
2022-09-26T04:59:52.270Z,11.29
2022-09-26T05:02:22.015Z,11.26
2022-09-26T05:04:51.660Z,11.25
2022-09-26T05:07:23.938Z,11.28
2022-09-26T05:09:53.806Z,11.31
2022-09-26T05:12:23.442Z,11.23
2022-09-26T05:14:56.729Z,11.22
2022-09-26T05:17:30.282Z,11.19
2022-09-26T05:20:12.055Z,11.20
2022-09-26T05:22:47.751Z,11.18
2022-09-26T05:25:43.132Z,11.20
2022-09-26T05:28:17.741Z,11.14
2022-09-26T05:30:49.915Z,11.14
2022-09-26T05:33:30.832Z,11.11
2022-09-26T05:36:03.588Z,11.11
2022-09-26T05:38:42.732Z,11.16
2022-09-26T05:41:12.327Z,11.15
2022-09-26T05:43:44.410Z,11.16
2022-09-26T05:46:22.537Z,11.14
2022-09-26T05:48:58.296Z,11.19
2022-09-26T05:51:34.758Z,11.16
2022-09-26T05:54:16.660Z,11.12
2022-09-26T05:56:50.159Z,11.16
2022-09-26T05:59:24.273Z,11.18
2022-09-26T06:02:02.938Z,11.19
2022-09-26T06:04:33.736Z,11.18
2022-09-26T06:07:05.589Z,11.23
2022-09-26T06:09:38.228Z,11.18
2022-09-26T06:12:17.855Z,11.23
2022-09-26T06:14:47.905Z,11.20
2022-09-26T06:17:18.438Z,11.22
2022-09-26T06:19:48.483Z,11.24
2022-09-26T06:22:18.965Z,11.27
2022-09-26T06:24:51.941Z,11.25
2022-09-26T06:27:22.631Z,11.27
2022-09-26T06:29:55.719Z,11.26
2022-09-26T06:32:25.683Z,11.27
2022-09-26T06:34:59.081Z,11.27
2022-09-26T06:37:28.678Z,11.32
2022-09-26T06:40:04.144Z,11.29
2022-09-26T06:42:38.198Z,11.30
2022-09-26T06:45:10.020Z,11.34
2022-09-26T06:47:41.857Z,11.30
2022-09-26T06:50:16.206Z,11.30
2022-09-26T06:52:46.316Z,11.36
2022-09-26T06:55:19.296Z,11.37
2022-09-26T06:57:49.213Z,11.45
2022-09-26T07:00:19.581Z,11.54
2022-09-26T07:02:53.626Z,11.60
2022-09-26T07:05:28.175Z,11.64
2022-09-26T07:07:58.563Z,11.73
2022-09-26T07:10:32.295Z,11.77
2022-09-26T07:13:07.245Z,11.79
2022-09-26T07:15:38.592Z,11.78
2022-09-26T07:18:12.207Z,11.78
2022-09-26T07:20:47.444Z,11.83
2022-09-26T07:23:20.222Z,11.86
2022-09-26T07:25:54.091Z,11.80
2022-09-26T07:28:24.443Z,11.82
2022-09-26T07:31:02.360Z,11.76
2022-09-26T07:33:41.236Z,11.85
2022-09-26T07:36:11.504Z,11.84
2022-09-26T07:38:41.111Z,11.79
2022-09-26T07:41:14.138Z,11.76
2022-09-26T07:46:46.720Z,11.83
2022-09-26T07:49:28.904Z,11.83
2022-09-26T07:52:00.742Z,11.82
2022-09-26T07:54:30.226Z,11.86
2022-09-26T07:57:04.948Z,11.87
2022-09-26T07:59:36.856Z,11.85
2022-09-26T08:02:06.683Z,11.78
2022-09-26T08:04:36.279Z,11.80
2022-09-26T08:07:06.011Z,11.80
2022-09-26T08:09:36.554Z,11.66
2022-09-26T08:12:08.864Z,11.63
2022-09-26T08:14:39.885Z,11.59
2022-09-26T08:17:14.085Z,11.58
2022-09-26T08:19:44.312Z,11.53
2022-09-26T08:22:15.350Z,11.49
2022-09-26T08:24:50.383Z,11.53
2022-09-26T08:27:22.751Z,11.54
2022-09-26T08:29:52.745Z,11.45
2022-09-26T08:32:23.964Z,11.46
2022-09-26T08:34:53.778Z,11.47
2022-09-26T08:37:23.394Z,11.45
2022-09-26T08:39:53.254Z,11.50
2022-09-26T08:42:43.287Z,11.53
2022-09-26T08:45:51.681Z,11.60
2022-09-26T08:48:47.598Z,11.57
2022-09-26T08:51:29.371Z,11.58
2022-09-26T08:54:05.835Z,11.60
2022-09-26T08:56:42.196Z,11.55
2022-09-26T08:59:20.931Z,11.61
2022-09-26T09:01:52.884Z,11.59
2022-09-26T09:04:27.273Z,11.58
2022-09-26T09:07:07.297Z,11.70
2022-09-26T09:09:36.924Z,11.81
2022-09-26T09:12:17.065Z,11.93
2022-09-26T09:15:24.613Z,12.02
2022-09-26T09:18:12.656Z,11.99
2022-09-26T09:20:56.904Z,11.96
2022-09-26T09:23:38.492Z,11.93
2022-09-26T09:29:19.904Z,11.92
2022-09-26T09:31:52.790Z,11.92
2022-09-26T09:34:27.936Z,11.86
2022-09-26T09:37:00.750Z,11.83
2022-09-26T09:39:34.247Z,11.77
2022-09-26T09:42:08.793Z,11.74
2022-09-26T09:44:46.884Z,11.67
2022-09-26T09:47:21.668Z,11.72
2022-09-26T09:49:52.912Z,11.67
2022-09-26T09:52:45.108Z,11.68
2022-09-26T09:55:25.927Z,11.68
2022-09-26T09:58:10.092Z,11.63
2022-09-26T10:00:49.057Z,11.60
2022-09-26T10:03:29.708Z,11.68
2022-09-26T10:06:02.922Z,11.66
2022-09-26T10:08:35.057Z,11.61
2022-09-26T10:11:14.428Z,11.67
2022-09-26T10:13:45.456Z,11.65
2022-09-26T10:16:16.536Z,11.61
2022-09-26T10:19:03.640Z,11.62
2022-09-26T10:21:39.383Z,11.66
2022-09-26T10:24:24.070Z,11.63
2022-09-26T10:26:54.532Z,11.65
2022-09-26T10:29:27.611Z,11.63
2022-09-26T10:32:01.750Z,11.68
2022-09-26T10:34:35.646Z,11.63
2022-09-26T10:37:24.114Z,11.66
2022-09-26T10:40:10.910Z,11.67
2022-09-26T10:42:40.666Z,11.66
2022-09-26T10:45:17.593Z,11.69
2022-09-26T10:47:51.470Z,11.64
2022-09-26T10:50:29.524Z,11.68
2022-09-26T10:53:05.257Z,11.70
2022-09-26T10:55:40.228Z,11.73
2022-09-26T10:58:17.555Z,11.71
2022-09-26T11:00:51.699Z,11.72
2022-09-26T11:03:24.830Z,11.77
2022-09-26T11:05:57.486Z,11.75
2022-09-26T11:08:29.601Z,11.75
2022-09-26T11:11:01.301Z,11.78
2022-09-26T11:13:32.812Z,11.86
2022-09-26T11:16:04.478Z,11.83
2022-09-26T11:18:51.107Z,11.84
2022-09-26T11:21:29.838Z,11.87
2022-09-26T11:24:06.235Z,11.85
2022-09-26T11:26:42.050Z,11.83
2022-09-26T11:29:20.329Z,11.85
2022-09-26T11:31:50.231Z,11.88
2022-09-26T11:34:27.637Z,11.92
2022-09-26T11:37:17.126Z,11.96
2022-09-26T11:40:06.081Z,11.92
2022-09-26T11:42:55.799Z,11.97
2022-09-26T11:45:37.741Z,11.99
2022-09-26T11:48:31.747Z,11.96
2022-09-26T11:51:08.183Z,12.04
2022-09-26T11:54:04.459Z,12.12
2022-09-26T11:56:49.446Z,12.30
2022-09-26T11:59:40.455Z,12.37
2022-09-26T12:02:40.007Z,12.37
2022-09-26T12:05:43.885Z,12.33
2022-09-26T12:08:25.271Z,12.38
2022-09-26T12:11:07.238Z,12.35
2022-09-26T12:13:52.503Z,12.37
2022-09-26T12:16:29.314Z,12.41
2022-09-26T12:19:08.114Z,12.42
2022-09-26T12:22:09.900Z,12.50
2022-09-26T12:24:46.060Z,12.58
2022-09-26T12:27:27.221Z,12.62
2022-09-26T12:30:06.946Z,12.66
2022-09-26T12:32:58.355Z,12.72
2022-09-26T12:35:46.854Z,12.81
2022-09-26T12:38:34.980Z,12.82
2022-09-26T12:41:32.956Z,12.91
2022-09-26T12:44:23.625Z,12.95
2022-09-26T12:47:06.504Z,13.07
2022-09-26T12:49:59.887Z,13.15
2022-09-26T12:52:44.828Z,13.27
2022-09-26T12:55:34.222Z,13.27
2022-09-26T12:58:17.296Z,13.40
2022-09-26T13:01:00.561Z,13.46
2022-09-26T13:03:58.222Z,13.58
2022-09-26T13:07:17.950Z,13.93
2022-09-26T13:10:06.478Z,14.15
2022-09-26T13:12:51.099Z,14.20
2022-09-26T13:15:31.331Z,14.16
2022-09-26T13:18:08.943Z,14.17
2022-09-26T13:20:45.145Z,14.25
2022-09-26T13:23:23.957Z,14.40
2022-09-26T13:25:57.231Z,14.53
2022-09-26T13:28:37.965Z,14.48
2022-09-26T13:31:18.988Z,14.39
2022-09-26T13:33:57.556Z,14.35
2022-09-26T13:36:31.276Z,14.25
2022-09-26T13:39:04.461Z,14.12
2022-09-26T13:41:45.701Z,14.02
2022-09-26T13:44:29.845Z,13.92
2022-09-26T13:47:13.166Z,13.77
2022-09-26T13:49:59.277Z,13.51
2022-09-26T13:52:42.132Z,13.09
2022-09-26T13:55:19.486Z,12.93
2022-09-26T13:58:07.364Z,12.83
2022-09-26T14:00:57.694Z,12.72
2022-09-26T14:03:48.259Z,12.87
2022-09-26T14:06:41.219Z,12.92
2022-09-26T14:09:24.137Z,13.01
2022-09-26T14:12:20.099Z,12.92
2022-09-26T14:15:09.817Z,13.02
2022-09-26T14:18:10.838Z,13.09
2022-09-26T14:21:05.631Z,13.14
2022-09-26T14:23:46.632Z,13.20
2022-09-26T14:26:21.579Z,13.04
2022-09-26T14:28:56.535Z,13.16
2022-09-26T14:32:01.806Z,13.16
2022-09-26T14:34:35.476Z,13.20
2022-09-26T14:37:06.451Z,13.19
2022-09-26T14:39:46.434Z,13.16
2022-09-26T14:42:25.690Z,13.15
2022-09-26T14:45:00.534Z,13.21
2022-09-26T14:47:33.266Z,13.29
2022-09-26T14:50:07.067Z,13.44
2022-09-26T14:52:39.898Z,13.34
2022-09-26T14:55:19.421Z,13.46
2022-09-26T14:57:49.669Z,13.65
2022-09-26T15:00:41.783Z,13.95
2022-09-26T15:03:20.188Z,13.99
2022-09-26T15:05:50.718Z,14.07
2022-09-26T15:08:28.114Z,14.01
2022-09-26T15:11:01.738Z,13.89
2022-09-26T15:13:39.921Z,14.01
2022-09-26T15:16:22.070Z,13.87
2022-09-26T15:18:55.532Z,13.86
2022-09-26T15:21:35.639Z,13.82
2022-09-26T15:24:07.619Z,13.82
2022-09-26T15:26:40.307Z,13.58
2022-09-26T15:29:10.307Z,13.59
2022-09-26T15:31:42.383Z,13.59
2022-09-26T15:34:19.269Z,13.55
2022-09-26T15:36:53.975Z,13.50
2022-09-26T15:39:41.353Z,13.30
2022-09-26T15:42:41.816Z,13.29
2022-09-26T15:45:27.276Z,13.33
2022-09-26T15:47:59.084Z,13.32
2022-09-26T15:50:32.522Z,13.44
2022-09-26T15:53:08.109Z,13.31
2022-09-26T15:55:42.721Z,13.34
2022-09-26T15:58:21.319Z,13.28
2022-09-26T16:00:54.511Z,13.27
2022-09-26T16:03:57.553Z,13.22
2022-09-26T16:06:30.614Z,13.12
2022-09-26T16:09:09.409Z,13.11
2022-09-26T16:11:47.559Z,12.94
2022-09-26T16:14:29.230Z,12.92
2022-09-26T16:17:06.197Z,12.89
2022-09-26T16:19:38.134Z,12.87
2022-09-26T16:22:36.602Z,12.87
2022-09-26T16:25:26.121Z,12.86
2022-09-26T16:28:03.071Z,12.84
2022-09-26T16:30:44.558Z,12.74
2022-09-26T16:33:31.711Z,12.68
2022-09-26T16:36:17.395Z,12.46
2022-09-26T16:38:53.051Z,12.25
2022-09-26T16:44:32.142Z,12.01
2022-09-26T16:47:09.269Z,12.02
2022-09-26T16:49:50.464Z,11.96
2022-09-26T16:52:32.888Z,11.84
2022-09-26T16:55:05.999Z,11.67
2022-09-26T16:57:37.935Z,11.54
2022-09-26T17:00:23.252Z,11.32
2022-09-26T17:02:55.769Z,11.20
2022-09-26T17:05:25.438Z,11.00
2022-09-26T17:07:55.051Z,10.97
2022-09-26T17:10:28.409Z,11.00
2022-09-26T17:13:02.740Z,10.96
2022-09-26T17:15:35.503Z,10.97
2022-09-26T17:18:10.665Z,10.96
2022-09-26T17:20:41.881Z,10.97
2022-09-26T17:23:34.948Z,10.91
2022-09-26T17:26:02.968Z,10.94
2022-09-26T17:28:38.267Z,10.90
2022-09-26T17:31:10.311Z,10.93
2022-09-26T17:33:44.346Z,10.92
2022-09-26T17:36:21.017Z,10.95
2022-09-26T17:38:50.726Z,10.95
2022-09-26T17:41:20.404Z,10.95
2022-09-26T17:43:59.003Z,10.96
2022-09-26T17:46:28.945Z,10.95
2022-09-26T17:49:05.302Z,10.97
2022-09-26T17:51:36.279Z,10.95
2022-09-26T17:54:07.622Z,10.95
2022-09-26T17:56:37.266Z,10.95
2022-09-26T17:59:09.510Z,10.95
2022-09-26T18:01:39.308Z,10.95
2022-09-26T18:04:17.544Z,10.96
2022-09-26T18:06:47.642Z,10.97
2022-09-26T18:09:18.524Z,10.97
2022-09-26T18:12:01.109Z,10.97
2022-09-26T18:14:33.371Z,10.93
2022-09-26T18:17:04.334Z,10.93
2022-09-26T18:19:38.329Z,10.91
2022-09-26T18:22:12.155Z,10.89
2022-09-26T18:24:41.810Z,10.91
2022-09-26T18:27:17.868Z,10.89
2022-09-26T18:29:50.070Z,10.90
2022-09-26T18:32:26.088Z,10.95
2022-09-26T18:34:58.301Z,10.95
2022-09-26T18:37:29.336Z,10.90
2022-09-26T18:40:03.817Z,10.81
2022-09-26T18:42:35.341Z,10.79
2022-09-26T18:45:08.237Z,10.77
2022-09-26T18:47:42.561Z,10.77
2022-09-26T18:50:24.725Z,10.78
2022-09-26T18:52:54.344Z,10.76
2022-09-26T18:55:38.557Z,10.76
2022-09-26T18:58:20.662Z,10.74
2022-09-26T19:00:50.869Z,10.77
2022-09-26T19:03:21.248Z,10.75
2022-09-26T19:05:54.972Z,10.74
2022-09-26T19:08:34.069Z,10.74
2022-09-26T19:11:13.049Z,10.72
2022-09-26T19:13:43.230Z,10.71
2022-09-26T19:16:14.335Z,10.69
2022-09-26T19:18:45.227Z,10.53
2022-09-26T19:21:26.817Z,10.47
2022-09-26T19:23:56.859Z,10.48
2022-09-26T19:26:30.158Z,10.50
2022-09-26T19:29:02.043Z,10.41
2022-09-26T19:31:32.134Z,10.39
2022-09-26T19:34:01.771Z,10.34
2022-09-26T19:36:34.128Z,10.27
2022-09-26T19:39:04.231Z,10.25
2022-09-26T19:41:34.080Z,10.23
2022-09-26T19:44:05.654Z,10.19
2022-09-26T19:46:35.370Z,10.20
2022-09-26T19:49:05.410Z,10.15
2022-09-26T19:51:41.142Z,10.11
2022-09-26T19:54:16.786Z,10.10
2022-09-26T19:56:46.928Z,10.06
2022-09-26T19:59:17.501Z,10.04
2022-09-26T20:01:48.853Z,10.02
2022-09-26T20:04:21.376Z,9.99
2022-09-26T20:06:53.688Z,10.04
2022-09-26T20:09:23.260Z,10.03
2022-09-26T20:11:52.778Z,10.03
2022-09-26T20:14:28.039Z,10.07
2022-09-26T20:17:00.720Z,10.10
2022-09-26T20:19:36.364Z,10.09
2022-09-26T20:22:14.549Z,10.05
2022-09-26T20:24:44.452Z,10.05
2022-09-26T20:27:20.066Z,10.03
2022-09-26T20:30:03.025Z,10.01
2022-09-26T20:32:32.770Z,10.02
2022-09-26T20:35:03.214Z,10.02
2022-09-26T20:37:39.339Z,10.01
2022-09-26T20:40:18.194Z,10.02
2022-09-26T20:42:50.910Z,10.05
2022-09-26T20:45:23.778Z,10.11
2022-09-26T20:47:53.376Z,10.24
2022-09-26T20:50:23.319Z,10.24
2022-09-26T20:52:55.434Z,10.23
2022-09-26T20:55:25.428Z,10.21
2022-09-26T20:57:55.074Z,10.20
2022-09-26T21:00:27.382Z,10.29
2022-09-26T21:02:57.333Z,10.39
2022-09-26T21:05:29.684Z,10.43
2022-09-26T21:08:03.169Z,10.37
2022-09-26T21:10:34.730Z,10.33
2022-09-26T21:13:05.218Z,10.31
2022-09-26T21:15:36.358Z,10.33
2022-09-26T21:18:06.103Z,10.30
2022-09-26T21:20:37.198Z,10.31
2022-09-26T21:23:13.007Z,10.31
2022-09-26T21:25:42.553Z,10.33
2022-09-26T21:28:26.299Z,10.32
2022-09-26T21:30:57.482Z,10.29
2022-09-26T21:33:27.439Z,10.36
2022-09-26T21:35:57.039Z,10.36
2022-09-26T21:38:29.243Z,10.33
2022-09-26T21:41:02.266Z,10.30
2022-09-26T21:43:36.181Z,10.26
2022-09-26T21:46:06.122Z,10.22
2022-09-26T21:48:36.369Z,10.15
2022-09-26T21:51:07.818Z,10.12
2022-09-26T21:53:46.067Z,10.07
2022-09-26T21:56:22.217Z,10.12
2022-09-26T21:58:53.223Z,10.08
2022-09-26T22:01:22.838Z,10.06
2022-09-26T22:03:53.043Z,10.05
2022-09-26T22:06:22.698Z,10.03
2022-09-26T22:08:54.848Z,10.06
2022-09-26T22:11:24.403Z,10.10
2022-09-26T22:13:54.178Z,10.13
2022-09-26T22:16:23.788Z,10.15
2022-09-26T22:18:53.371Z,10.15
2022-09-26T22:21:23.290Z,10.12
2022-09-26T22:23:56.112Z,10.06
2022-09-26T22:26:26.423Z,9.98
2022-09-26T22:28:55.968Z,9.84
2022-09-26T22:31:25.634Z,9.84
2022-09-26T22:33:58.403Z,9.81
2022-09-26T22:36:28.548Z,9.88
2022-09-26T22:39:04.439Z,9.82
2022-09-26T22:41:34.282Z,9.78
2022-09-26T22:44:06.796Z,9.73
2022-09-26T22:46:37.132Z,9.72
2022-09-26T22:49:06.950Z,9.46
2022-09-26T22:51:36.646Z,9.33
2022-09-26T22:54:08.842Z,9.31
2022-09-26T22:56:38.803Z,9.40
2022-09-26T22:59:08.840Z,9.42
2022-09-26T23:01:38.992Z,9.41
2022-09-26T23:04:08.908Z,9.39
2022-09-26T23:06:38.805Z,9.41
2022-09-26T23:09:11.443Z,9.40
2022-09-26T23:11:41.074Z,9.39
2022-09-26T23:14:11.002Z,9.38
2022-09-26T23:16:40.882Z,9.35
2022-09-26T23:19:10.507Z,9.38
2022-09-26T23:21:40.270Z,9.36
2022-09-26T23:24:12.738Z,9.35
2022-09-26T23:26:42.270Z,9.32
2022-09-26T23:29:11.997Z,9.32
2022-09-26T23:31:41.668Z,9.38
2022-09-26T23:34:11.889Z,9.36
2022-09-26T23:36:41.550Z,9.35
2022-09-26T23:39:13.995Z,9.34
2022-09-26T23:41:43.580Z,9.33
2022-09-26T23:44:13.177Z,9.38
2022-09-26T23:46:42.744Z,9.39
2022-09-26T23:49:12.277Z,9.40
2022-09-26T23:51:42.596Z,9.40
2022-09-26T23:54:14.800Z,9.39
2022-09-26T23:56:44.482Z,9.37
2022-09-26T23:59:14.195Z,9.34
